Time;durP1;ratioP1;P1;durP2;ratioP2;P2;SDS_P1;SDS_P2;PMS_P1;PMS_P2;Temp;Humidity;BMP_temperature;BMP_pressure;BME280_temperature;BME280_humidity;BME280_pressure;Samples;Min_cycle;Max_cycle;Signal;HPM_P1;HPM_P2
2022/03/07 00:00:11;;;;;;;5.22;2.65;;;6.30;65.10;;;;;;4996205;28;20030;-79
2022/03/07 00:02:38;;;;;;;6.65;2.53;;;6.30;65.10;;;;;;4996049;28;20461;-79
2022/03/07 00:05:03;;;;;;;6.63;2.72;;;6.40;65.00;;;;;;4996015;28;20073;-79
2022/03/07 00:07:29;;;;;;;4.97;2.70;;;6.40;64.80;;;;;;4996517;28;20034;-80
2022/03/07 00:09:55;;;;;;;3.95;2.38;;;6.50;64.60;;;;;;5012872;28;20080;-80
2022/03/07 00:12:20;;;;;;;5.97;2.92;;;6.50;64.50;;;;;;5013295;28;20502;-80
2022/03/07 00:14:46;;;;;;;4.20;2.83;;;6.50;64.30;;;;;;5011334;28;20085;-80
2022/03/07 00:17:11;;;;;;;6.63;2.95;;;6.60;64.30;;;;;;5001061;28;20025;-79
2022/03/07 00:19:37;;;;;;;5.45;2.72;;;6.60;64.10;;;;;;5013242;28;20061;-79
2022/03/07 00:22:03;;;;;;;5.72;3.17;;;6.50;64.10;;;;;;5013650;28;20029;-79
2022/03/07 00:24:28;;;;;;;5.22;3.03;;;6.50;64.10;;;;;;5012876;28;20516;-79
2022/03/07 00:26:56;;;;;;;6.97;2.85;;;6.50;64.10;;;;;;5013038;28;20029;-79
2022/03/07 00:29:22;;;;;;;4.90;3.17;;;6.50;64.10;;;;;;4997749;28;20477;-80
2022/03/07 00:31:48;;;;;;;4.90;3.10;;;6.60;64.10;;;;;;4997715;28;20073;-79
2022/03/07 00:34:14;;;;;;;4.35;2.35;;;6.60;64.00;;;;;;4997695;28;20117;-80
2022/03/07 00:36:40;;;;;;;4.47;2.70;;;6.70;63.90;;;;;;5010329;28;20030;-79
2022/03/07 00:39:05;;;;;;;4.45;2.70;;;6.70;63.80;;;;;;5011581;28;20442;-80
2022/03/07 00:41:31;;;;;;;6.03;2.78;;;6.80;63.70;;;;;;4998136;28;20481;-80
2022/03/07 00:43:57;;;;;;;6.07;2.72;;;6.80;63.70;;;;;;4997282;28;20099;-79
2022/03/07 00:46:22;;;;;;;4.30;2.47;;;6.80;63.60;;;;;;4999883;28;20092;-80
2022/03/07 00:48:48;;;;;;;4.75;2.30;;;6.80;63.50;;;;;;5011994;28;20029;-79
2022/03/07 00:51:13;;;;;;;5.80;2.83;;;6.80;63.50;;;;;;5010695;28;20488;-80
2022/03/07 00:53:39;;;;;;;5.78;2.45;;;6.90;63.50;;;;;;5013375;28;20030;-80
2022/03/07 00:56:07;;;;;;;4.80;2.40;;;6.90;63.40;;;;;;5003369;28;20074;-80
2022/03/07 00:58:32;;;;;;;8.80;2.85;;;6.90;63.40;;;;;;5013736;28;20026;-80
2022/03/07 01:00:58;;;;;;;6.97;3.10;;;6.90;63.30;;;;;;5003858;28;20081;-79
2022/03/07 01:03:24;;;;;;;5.10;2.60;;;6.90;63.30;;;;;;4995741;28;20030;-80
2022/03/07 01:05:49;;;;;;;6.60;3.00;;;6.90;63.30;;;;;;5004110;28;20031;-80
2022/03/07 01:08:15;;;;;;;6.95;2.70;;;6.80;63.70;;;;;;5008140;28;20437;-80
2022/03/07 01:10:41;;;;;;;6.47;2.97;;;6.90;63.50;;;;;;5001781;28;20021;-80
2022/03/07 01:13:07;;;;;;;5.00;2.55;;;6.80;63.40;;;;;;5007322;28;20027;-81
2022/03/07 01:15:33;;;;;;;6.45;2.72;;;6.80;63.50;;;;;;4998184;28;20026;-80
2022/03/07 01:17:59;;;;;;;6.22;3.00;;;6.80;63.40;;;;;;5008917;28;20080;-80
2022/03/07 01:20:26;;;;;;;5.82;3.28;;;6.80;63.40;;;;;;5011333;28;20026;-79
2022/03/07 01:22:52;;;;;;;4.60;2.78;;;6.80;63.40;;;;;;5001378;28;20073;-80
2022/03/07 01:25:17;;;;;;;3.67;2.65;;;6.80;63.40;;;;;;4998041;28;20070;-79
2022/03/07 01:27:43;;;;;;;5.60;3.00;;;6.80;63.40;;;;;;5005369;28;20377;-79
2022/03/07 01:30:09;;;;;;;5.10;2.60;;;6.80;63.40;;;;;;5011778;28;20034;-78
2022/03/07 01:32:35;;;;;;;5.00;3.72;;;6.80;63.40;;;;;;5003865;28;20031;-78
2022/03/07 01:35:00;;;;;;;6.30;3.33;;;6.80;63.40;;;;;;4996564;28;20031;-79
2022/03/07 01:37:26;;;;;;;6.90;3.70;;;6.80;63.40;;;;;;5003203;28;20026;-79
2022/03/07 01:39:52;;;;;;;6.10;3.30;;;6.80;63.40;;;;;;5000998;28;20049;-79
2022/03/07 01:42:17;;;;;;;4.93;2.90;;;6.80;63.40;;;;;;4994260;28;20041;-79
2022/03/07 01:44:43;;;;;;;5.80;3.53;;;6.70;63.40;;;;;;4994252;28;20109;-79
2022/03/07 01:47:08;;;;;;;5.65;3.47;;;6.70;63.40;;;;;;4993756;28;20109;-79
2022/03/07 01:49:34;;;;;;;6.25;3.45;;;6.70;63.50;;;;;;4993992;28;20089;-79
2022/03/07 01:52:00;;;;;;;5.72;3.92;;;6.70;63.50;;;;;;4993665;28;20084;-79
2022/03/07 01:54:25;;;;;;;5.35;3.55;;;6.60;64.10;;;;;;4994300;28;20034;-79
2022/03/07 01:56:53;;;;;;;5.78;3.50;;;6.60;63.50;;;;;;4994222;28;20532;-81
2022/03/07 01:59:24;;;;;;;5.38;3.53;;;6.70;63.60;;;;;;4993988;28;20061;-81
2022/03/07 02:01:51;;;;;;;6.25;3.58;;;6.70;63.50;;;;;;4994089;28;20089;-81
2022/03/07 02:04:17;;;;;;;6.70;3.25;;;6.60;63.40;;;;;;4994043;28;20122;-81
2022/03/07 02:06:44;;;;;;;5.57;3.53;;;6.60;63.40;;;;;;4993840;28;20025;-81
2022/03/07 02:09:11;;;;;;;7.65;3.88;;;6.70;63.40;;;;;;4993433;28;20034;-81
2022/03/07 02:11:37;;;;;;;7.32;3.55;;;6.70;63.40;;;;;;4993991;28;20034;-80
2022/03/07 02:14:15;;;;;;;6.80;3.90;;;6.70;63.50;;;;;;4991195;28;20027;-80
2022/03/07 02:16:42;;;;;;;7.53;4.05;;;6.60;63.60;;;;;;4993498;28;20026;-80
2022/03/07 02:19:08;;;;;;;5.70;3.58;;;6.60;63.60;;;;;;4993578;28;20018;-81
2022/03/07 02:21:34;;;;;;;6.85;3.45;;;6.60;63.60;;;;;;4994106;28;20031;-81
2022/03/07 02:24:00;;;;;;;6.70;4.38;;;6.60;63.60;;;;;;4993377;28;20034;-80
2022/03/07 02:26:26;;;;;;;5.13;3.85;;;6.50;63.70;;;;;;4993870;28;20033;-81
2022/03/07 02:28:52;;;;;;;6.63;3.88;;;6.40;63.90;;;;;;4993256;28;20026;-81
2022/03/07 02:31:20;;;;;;;8.18;4.40;;;6.40;64.00;;;;;;4993754;28;20030;-82
2022/03/07 02:33:46;;;;;;;6.82;4.13;;;6.30;64.10;;;;;;4993086;28;20034;-80
2022/03/07 02:36:12;;;;;;;7.97;4.30;;;6.30;64.20;;;;;;4993553;28;20042;-81
2022/03/07 02:38:37;;;;;;;6.25;3.78;;;6.20;64.40;;;;;;4995176;28;20026;-81
2022/03/07 02:41:03;;;;;;;7.70;4.70;;;6.20;64.90;;;;;;5010446;28;20042;-80
2022/03/07 02:43:29;;;;;;;5.63;4.10;;;6.10;65.00;;;;;;5005328;28;20092;-80
2022/03/07 02:45:55;;;;;;;6.93;4.13;;;6.10;65.10;;;;;;4994750;28;20492;-80
2022/03/07 02:48:21;;;;;;;8.90;4.20;;;6.00;65.20;;;;;;4992823;28;20029;-80
2022/03/07 02:50:47;;;;;;;7.53;4.03;;;6.00;65.30;;;;;;4993473;28;20026;-80
2022/03/07 02:53:14;;;;;;;6.10;4.07;;;6.00;65.30;;;;;;4992375;28;20121;-80
2022/03/07 02:55:40;;;;;;;5.35;3.70;;;6.00;65.30;;;;;;4992907;28;20481;-81
2022/03/07 02:58:05;;;;;;;7.75;4.55;;;6.00;65.40;;;;;;4992692;28;20058;-80
2022/03/07 03:00:31;;;;;;;7.50;3.90;;;6.00;65.50;;;;;;4993731;28;20026;-79
2022/03/07 03:02:57;;;;;;;7.00;4.03;;;6.00;65.40;;;;;;5007043;28;20096;-79
2022/03/07 03:05:23;;;;;;;6.13;3.90;;;6.00;65.40;;;;;;4996609;28;20557;-79
2022/03/07 03:07:51;;;;;;;7.03;4.00;;;6.00;65.40;;;;;;4993275;28;20030;-79
2022/03/07 03:10:18;;;;;;;8.48;4.07;;;6.00;65.60;;;;;;4997838;28;20362;-79
2022/03/07 03:12:44;;;;;;;7.25;3.90;;;6.00;65.70;;;;;;5011811;28;20022;-80
2022/03/07 03:15:10;;;;;;;7.55;4.07;;;6.00;65.80;;;;;;4999290;28;20031;-79
2022/03/07 03:17:39;;;;;;;9.23;4.03;;;6.00;65.80;;;;;;5011348;28;20022;-79
2022/03/07 03:20:05;;;;;;;6.38;4.00;;;6.00;65.80;;;;;;5010237;28;20033;-79
2022/03/07 03:22:31;;;;;;;5.05;4.20;;;6.00;65.70;;;;;;4993950;28;20389;-79
2022/03/07 03:24:56;;;;;;;7.43;4.20;;;6.00;65.70;;;;;;5004519;28;20366;-79
2022/03/07 03:27:22;;;;;;;6.70;4.40;;;6.00;65.70;;;;;;5000209;28;20084;-79
2022/03/07 03:29:48;;;;;;;9.15;4.55;;;6.00;65.80;;;;;;5003001;28;20034;-81
2022/03/07 03:32:13;;;;;;;5.90;4.57;;;6.00;65.80;;;;;;5001371;28;20084;-80
2022/03/07 03:34:39;;;;;;;8.23;5.93;;;6.00;65.70;;;;;;5005605;28;20481;-81
2022/03/07 03:37:04;;;;;;;8.52;5.15;;;6.00;65.80;;;;;;5016914;28;20029;-81
2022/03/07 03:39:30;;;;;;;9.07;5.55;;;6.00;65.70;;;;;;5016318;28;20045;-80
2022/03/07 03:41:55;;;;;;;9.57;5.53;;;6.00;65.70;;;;;;4998653;28;20463;-80
2022/03/07 03:44:21;;;;;;;9.85;5.55;;;6.00;65.90;;;;;;5009630;28;20041;-80
2022/03/07 03:46:46;;;;;;;7.05;5.43;;;5.90;65.80;;;;;;5016810;28;20025;-80
2022/03/07 03:49:12;;;;;;;8.85;6.10;;;5.90;65.90;;;;;;5016636;28;20064;-80
2022/03/07 03:51:38;;;;;;;9.57;6.10;;;6.00;65.90;;;;;;5016510;28;20041;-80
2022/03/07 03:54:03;;;;;;;8.48;5.85;;;6.00;65.90;;;;;;5011003;28;20022;-80
2022/03/07 03:56:29;;;;;;;10.65;6.32;;;5.90;65.80;;;;;;5002237;28;20030;-81
2022/03/07 03:58:55;;;;;;;8.10;5.65;;;6.00;65.90;;;;;;5000916;28;20437;-81
2022/03/07 04:01:20;;;;;;;8.88;6.03;;;5.90;65.90;;;;;;5013212;28;20022;-81
2022/03/07 04:03:46;;;;;;;9.10;5.95;;;5.90;66.00;;;;;;5001770;28;20133;-80
2022/03/07 04:06:11;;;;;;;10.07;6.32;;;6.00;66.10;;;;;;4995766;28;20081;-80
2022/03/07 04:08:49;;;;;;;10.32;6.57;;;6.00;66.00;;;;;;5007432;28;20076;-80
2022/03/07 04:11:15;;;;;;;9.15;6.40;;;5.90;65.90;;;;;;4995915;28;20089;-79
2022/03/07 04:13:40;;;;;;;8.65;6.13;;;5.90;66.00;;;;;;5000196;28;20030;-79
2022/03/07 04:16:06;;;;;;;10.32;6.53;;;5.90;66.20;;;;;;5003666;28;20030;-79
2022/03/07 04:18:32;;;;;;;9.10;7.03;;;5.90;66.10;;;;;;5016995;28;20033;-80
2022/03/07 04:20:57;;;;;;;12.20;7.00;;;5.80;66.20;;;;;;5007898;28;20034;-80
2022/03/07 04:23:24;;;;;;;9.25;6.78;;;5.70;66.70;;;;;;5012302;28;20048;-80
2022/03/07 04:25:49;;;;;;;11.60;7.05;;;5.80;66.60;;;;;;5009845;28;20034;-81
2022/03/07 04:28:15;;;;;;;10.35;7.38;;;5.80;66.50;;;;;;4999328;28;20022;-80
2022/03/07 04:30:42;;;;;;;9.65;6.45;;;5.70;66.50;;;;;;5010731;28;20062;-80
2022/03/07 04:33:08;;;;;;;10.02;6.32;;;5.70;66.60;;;;;;4997496;28;20030;-79
2022/03/07 04:35:35;;;;;;;10.02;6.65;;;5.60;66.70;;;;;;5004243;28;20474;-80
2022/03/07 04:38:01;;;;;;;11.02;7.20;;;5.60;66.70;;;;;;5001052;28;20446;-81
2022/03/07 04:40:28;;;;;;;10.20;6.97;;;5.60;66.90;;;;;;4998513;28;20058;-79
2022/03/07 04:42:56;;;;;;;13.15;6.68;;;5.50;66.90;;;;;;4994187;28;20033;-81
2022/03/07 04:45:22;;;;;;;8.88;6.13;;;5.60;67.10;;;;;;4995531;28;20393;-80
2022/03/07 04:47:48;;;;;;;13.43;7.65;;;5.50;67.00;;;;;;4995664;28;20065;-79
2022/03/07 04:50:13;;;;;;;10.32;6.95;;;5.50;67.10;;;;;;4995077;28;20030;-80
2022/03/07 04:52:39;;;;;;;9.43;6.35;;;5.40;67.20;;;;;;4994918;28;20036;-81
2022/03/07 04:55:05;;;;;;;9.80;6.30;;;5.50;67.40;;;;;;4995260;28;20041;-81
2022/03/07 04:57:31;;;;;;;8.63;6.30;;;5.50;67.30;;;;;;4994148;28;20026;-80
2022/03/07 04:59:57;;;;;;;11.75;6.45;;;5.60;67.40;;;;;;4995238;28;20088;-80
2022/03/07 05:02:22;;;;;;;9.02;6.32;;;5.60;67.30;;;;;;4994876;28;20019;-79
2022/03/07 05:04:48;;;;;;;8.73;5.80;;;5.60;67.20;;;;;;4995269;28;20498;-80
2022/03/07 05:07:13;;;;;;;11.98;6.57;;;5.70;67.30;;;;;;4994964;28;20381;-79
2022/03/07 05:09:39;;;;;;;9.45;6.63;;;5.70;67.10;;;;;;4994729;28;20038;-80
2022/03/07 05:12:05;;;;;;;9.63;6.10;;;5.70;67.10;;;;;;4994915;28;20029;-79
2022/03/07 05:14:30;;;;;;;9.93;6.30;;;5.60;67.00;;;;;;4992631;28;20492;-80
2022/03/07 05:16:56;;;;;;;9.65;6.75;;;5.60;67.10;;;;;;4995091;28;20023;-80
2022/03/07 05:19:23;;;;;;;9.13;5.60;;;5.60;67.20;;;;;;4995196;28;20030;-83
2022/03/07 05:21:49;;;;;;;10.50;6.68;;;5.50;67.30;;;;;;4995074;28;20040;-82
2022/03/07 05:24:15;;;;;;;8.48;6.05;;;5.50;67.40;;;;;;4994769;28;20113;-77
2022/03/07 05:26:40;;;;;;;10.80;6.28;;;5.50;67.50;;;;;;4994512;28;20030;-77
2022/03/07 05:29:06;;;;;;;11.80;6.55;;;5.50;67.60;;;;;;4994508;28;20034;-78
2022/03/07 05:31:32;;;;;;;9.50;6.05;;;5.60;67.70;;;;;;4994614;28;20034;-77
2022/03/07 05:33:58;;;;;;;9.73;6.05;;;5.60;67.60;;;;;;4994276;28;20445;-77
2022/03/07 05:36:24;;;;;;;10.52;6.38;;;5.50;67.60;;;;;;4994032;28;20045;-78
2022/03/07 05:38:49;;;;;;;9.63;6.15;;;5.50;67.50;;;;;;4994441;28;20046;-78
2022/03/07 05:41:15;;;;;;;7.63;5.57;;;5.50;67.70;;;;;;4994905;28;20080;-77
2022/03/07 05:43:41;;;;;;;10.38;6.30;;;5.50;67.70;;;;;;4993858;28;20031;-78
2022/03/07 05:46:07;;;;;;;11.20;6.65;;;5.40;67.80;;;;;;4994716;28;20041;-78
2022/03/07 05:48:34;;;;;;;12.82;6.78;;;5.30;67.80;;;;;;4993303;28;20027;-78
2022/03/07 05:50:59;;;;;;;10.50;6.28;;;5.30;68.10;;;;;;4994268;28;20366;-80
2022/03/07 05:53:25;;;;;;;5.60;4.22;;;5.20;68.30;;;;;;4993508;28;20033;-80
2022/03/07 05:55:51;;;;;;;5.70;3.15;;;5.30;71.50;;;;;;4994049;28;20034;-80
2022/03/07 05:58:18;;;;;;;4.45;2.53;;;5.50;73.80;;;;;;4993881;28;20033;-79
2022/03/07 06:00:43;;;;;;;9.50;4.13;;;5.70;76.20;;;;;;4994100;28;20030;-78
2022/03/07 06:03:09;;;;;;;5.88;4.25;;;5.90;76.40;;;;;;4992981;28;20097;-79
2022/03/07 06:05:35;;;;;;;4.88;2.75;;;6.10;76.70;;;;;;4993618;28;20097;-77
2022/03/07 06:08:02;;;;;;;4.57;3.35;;;6.30;76.90;;;;;;4991102;28;20032;-78
2022/03/07 06:10:28;;;;;;;7.47;4.15;;;6.40;75.90;;;;;;4993164;28;20034;-77
2022/03/07 06:12:54;;;;;;;5.82;2.70;;;6.50;75.00;;;;;;4993517;28;20385;-76
2022/03/07 06:15:20;;;;;;;6.50;3.10;;;6.70;75.70;;;;;;4993592;28;20049;-78
2022/03/07 06:17:51;;;;;;;3.88;2.50;;;6.80;76.30;;;;;;4993526;28;20023;-79
2022/03/07 06:20:17;;;;;;;9.70;4.43;;;7.00;76.70;;;;;;4994538;28;20454;-79
2022/03/07 06:22:43;;;;;;;8.35;3.95;;;7.10;73.50;;;;;;4995081;28;20022;-79
2022/03/07 06:25:09;;;;;;;6.55;4.53;;;7.00;72.90;;;;;;4994580;28;20436;-78
2022/03/07 06:27:34;;;;;;;8.43;4.65;;;7.10;73.40;;;;;;4994904;28;20022;-79
2022/03/07 06:30:00;;;;;;;6.90;4.68;;;7.20;73.00;;;;;;4995093;28;20023;-79
2022/03/07 06:32:26;;;;;;;7.97;4.82;;;7.20;72.70;;;;;;4994728;28;20022;-78
2022/03/07 06:34:52;;;;;;;6.47;3.50;;;7.30;71.80;;;;;;4994859;28;20034;-77
2022/03/07 06:37:17;;;;;;;6.70;3.90;;;7.30;72.10;;;;;;4994384;28;20081;-77
2022/03/07 06:39:43;;;;;;;5.57;3.35;;;7.40;72.50;;;;;;4994390;28;20137;-77
2022/03/07 06:42:10;;;;;;;8.38;4.28;;;7.50;72.20;;;;;;4994771;28;20033;-78
2022/03/07 06:44:39;;;;;;;6.95;3.10;;;7.60;71.90;;;;;;4994338;28;20062;-77
2022/03/07 06:47:06;;;;;;;8.18;4.50;;;7.60;71.00;;;;;;4994273;28;20019;-77
2022/03/07 06:49:32;;;;;;;8.30;4.78;;;7.70;71.00;;;;;;4994549;28;20382;-78
2022/03/07 06:51:57;;;;;;;8.00;4.00;;;7.70;70.30;;;;;;4994180;28;20026;-77
2022/03/07 06:54:23;;;;;;;7.45;3.65;;;7.70;70.10;;;;;;4994077;28;20030;-78
2022/03/07 06:56:49;;;;;;;7.30;4.45;;;7.70;70.20;;;;;;4994625;28;20080;-78
2022/03/07 06:59:14;;;;;;;10.10;4.90;;;7.70;69.10;;;;;;4994369;28;20022;-78
2022/03/07 07:01:40;;;;;;;7.53;3.65;;;7.70;68.40;;;;;;4994448;28;20490;-78
2022/03/07 07:04:06;;;;;;;6.10;4.00;;;7.70;68.90;;;;;;4994300;28;20026;-78
2022/03/07 07:06:31;;;;;;;6.30;3.80;;;7.70;68.70;;;;;;4993401;28;20092;-78
2022/03/07 07:08:57;;;;;;;7.38;4.78;;;7.70;67.70;;;;;;4994357;28;20026;-79
2022/03/07 07:11:22;;;;;;;11.07;4.28;;;7.60;66.00;;;;;;4994162;28;20493;-78
2022/03/07 07:13:48;;;;;;;10.00;5.57;;;7.50;65.70;;;;;;4993949;28;20109;-78
2022/03/07 07:16:13;;;;;;;10.88;5.03;;;7.50;66.00;;;;;;4994136;28;20036;-78
2022/03/07 07:18:39;;;;;;;11.00;5.43;;;7.20;64.70;;;;;;4993810;28;20453;-77
2022/03/07 07:21:05;;;;;;;8.73;4.60;;;7.10;65.50;;;;;;4993896;28;20544;-78
2022/03/07 07:23:30;;;;;;;7.72;5.47;;;7.00;66.70;;;;;;4993505;28;20034;-78
2022/03/07 07:25:56;;;;;;;6.32;4.70;;;7.00;66.50;;;;;;4993990;28;20096;-77
2022/03/07 07:28:22;;;;;;;11.43;5.57;;;7.00;67.00;;;;;;4993742;28;20054;-77
2022/03/07 07:30:47;;;;;;;13.23;5.85;;;7.00;65.80;;;;;;4993614;28;20069;-79
2022/03/07 07:33:13;;;;;;;7.80;4.65;;;6.80;66.00;;;;;;4993972;28;20029;-78
2022/03/07 07:35:42;;;;;;;8.02;5.50;;;6.80;67.60;;;;;;4994096;28;20477;-78
2022/03/07 07:38:08;;;;;;;10.55;5.97;;;7.00;66.20;;;;;;4994134;28;20030;-78
2022/03/07 07:40:34;;;;;;;7.75;5.57;;;6.90;66.50;;;;;;4993627;28;20052;-78
2022/03/07 07:42:59;;;;;;;12.18;5.70;;;6.90;66.20;;;;;;4993554;28;20030;-79
2022/03/07 07:45:25;;;;;;;9.02;5.43;;;7.00;66.40;;;;;;4993689;28;20101;-78
2022/03/07 07:47:52;;;;;;;7.85;6.45;;;7.20;66.90;;;;;;4994129;28;20366;-79
2022/03/07 07:50:18;;;;;;;15.05;7.03;;;7.30;65.70;;;;;;4993280;28;20050;-79
2022/03/07 07:52:44;;;;;;;10.52;6.55;;;7.20;65.10;;;;;;4993683;28;20429;-79
2022/03/07 07:55:10;;;;;;;13.18;6.93;;;7.10;65.30;;;;;;4994049;28;20150;-79
2022/03/07 07:57:35;;;;;;;10.15;6.53;;;7.10;65.80;;;;;;4993653;28;20045;-80
2022/03/07 08:00:03;;;;;;;7.75;5.97;;;7.10;65.90;;;;;;4993818;28;20026;-79
2022/03/07 08:02:29;;;;;;;8.27;5.05;;;7.10;65.90;;;;;;4994006;28;20037;-79
2022/03/07 08:04:54;;;;;;;11.38;6.45;;;7.30;66.20;;;;;;4993310;28;20042;-79
2022/03/07 08:07:20;;;;;;;10.38;6.25;;;7.40;65.80;;;;;;4993605;28;20033;-79
2022/03/07 08:09:45;;;;;;;10.13;6.13;;;7.30;64.90;;;;;;4993807;28;20038;-79
2022/03/07 08:12:12;;;;;;;10.05;6.85;;;7.10;65.70;;;;;;4993558;28;20440;-79
2022/03/07 08:14:38;;;;;;;15.63;6.70;;;7.00;66.10;;;;;;4993601;28;20102;-79
2022/03/07 08:17:05;;;;;;;11.52;6.15;;;7.00;66.40;;;;;;4995695;28;20094;-79
2022/03/07 08:19:31;;;;;;;10.52;6.20;;;7.00;65.70;;;;;;4996816;28;20482;-79
2022/03/07 08:21:56;;;;;;;14.23;6.32;;;7.00;65.60;;;;;;4996771;28;20107;-79
2022/03/07 08:24:23;;;;;;;11.20;6.10;;;6.90;65.50;;;;;;4996528;28;20133;-80
2022/03/07 08:26:49;;;;;;;12.35;6.90;;;6.90;66.10;;;;;;4996823;28;20029;-79
2022/03/07 08:29:17;;;;;;;10.85;6.63;;;7.00;65.50;;;;;;4996705;28;20026;-80
2022/03/07 08:31:43;;;;;;;8.75;5.70;;;7.10;65.50;;;;;;4996569;28;20492;-79
2022/03/07 08:34:08;;;;;;;10.38;5.80;;;7.20;64.80;;;;;;4996674;28;20034;-80
2022/03/07 08:36:34;;;;;;;9.38;5.85;;;7.30;64.20;;;;;;4996570;28;20480;-80
2022/03/07 08:39:00;;;;;;;7.60;5.38;;;7.40;64.20;;;;;;4996657;28;20035;-79
2022/03/07 08:41:25;;;;;;;7.00;4.88;;;7.40;63.40;;;;;;4996827;28;20434;-79
2022/03/07 08:43:52;;;;;;;6.72;4.55;;;7.40;63.00;;;;;;4996584;28;20018;-80
2022/03/07 08:46:18;;;;;;;7.72;4.93;;;7.40;62.40;;;;;;4996694;28;20034;-79
2022/03/07 08:48:44;;;;;;;5.75;4.50;;;7.50;61.70;;;;;;4996166;28;20355;-79
2022/03/07 08:51:10;;;;;;;6.68;4.78;;;7.50;62.50;;;;;;4996108;28;20030;-79
2022/03/07 08:53:36;;;;;;;7.22;4.55;;;7.50;62.30;;;;;;4996443;28;20072;-79
2022/03/07 08:56:01;;;;;;;8.70;4.50;;;7.40;60.90;;;;;;4996560;28;20366;-79
2022/03/07 08:58:27;;;;;;;5.53;3.78;;;7.50;61.50;;;;;;4995326;28;20034;-79
2022/03/07 09:00:52;;;;;;;8.70;4.18;;;7.50;59.70;;;;;;4996239;28;20486;-79
2022/03/07 09:03:18;;;;;;;5.43;4.00;;;7.50;60.10;;;;;;4996309;28;20034;-79
2022/03/07 09:05:44;;;;;;;5.88;3.55;;;7.60;60.60;;;;;;4996383;28;20089;-79
2022/03/07 09:08:09;;;;;;;4.50;3.25;;;7.70;60.00;;;;;;4996213;28;20110;-79
2022/03/07 09:10:35;;;;;;;8.38;3.47;;;7.80;59.40;;;;;;4996115;28;20026;-86
2022/03/07 09:13:01;;;;;;;4.80;3.25;;;7.90;59.50;;;;;;4996255;28;20049;-86
2022/03/07 09:15:27;;;;;;;6.78;3.78;;;8.20;59.00;;;;;;4996001;28;20038;-81
2022/03/07 09:17:52;;;;;;;6.03;3.17;;;8.20;58.50;;;;;;4996131;28;20033;-85
2022/03/07 09:20:19;;;;;;;5.82;3.08;;;8.00;58.60;;;;;;4996454;28;20037;-86
2022/03/07 09:22:45;;;;;;;5.30;3.22;;;8.00;57.80;;;;;;4996185;28;20030;-84
2022/03/07 09:25:11;;;;;;;5.47;3.85;;;8.00;58.00;;;;;;4996126;28;20385;-85
2022/03/07 09:27:37;;;;;;;5.57;3.30;;;8.20;58.30;;;;;;4995317;28;20445;-85
2022/03/07 09:30:06;;;;;;;8.18;3.95;;;8.30;58.00;;;;;;4995964;28;20084;-86
2022/03/07 09:32:32;;;;;;;7.97;3.78;;;8.20;58.30;;;;;;4995509;28;20023;-84
2022/03/07 09:34:58;;;;;;;4.47;3.25;;;8.30;58.80;;;;;;4996149;28;20030;-86
2022/03/07 09:37:24;;;;;;;6.75;4.07;;;8.50;57.90;;;;;;4995861;28;20045;-86
2022/03/07 09:39:49;;;;;;;6.35;3.55;;;8.70;56.70;;;;;;4995571;28;20058;-85
2022/03/07 09:42:16;;;;;;;4.95;3.40;;;8.70;57.20;;;;;;4996091;28;20351;-87
2022/03/07 09:44:41;;;;;;;5.95;3.45;;;8.60;56.70;;;;;;4995577;28;20093;-86
2022/03/07 09:47:07;;;;;;;6.28;3.53;;;8.80;56.30;;;;;;4995797;28;20022;-86
2022/03/07 09:49:33;;;;;;;7.47;3.55;;;8.70;56.40;;;;;;4996154;28;20054;-87
2022/03/07 09:51:59;;;;;;;3.95;2.70;;;8.60;56.90;;;;;;4995518;28;20076;-87
2022/03/07 09:54:25;;;;;;;3.60;2.90;;;8.60;56.00;;;;;;4995327;28;20030;-86
2022/03/07 09:56:51;;;;;;;3.58;2.70;;;8.60;54.80;;;;;;4995648;28;20034;-87
2022/03/07 09:59:18;;;;;;;4.40;3.28;;;8.70;55.20;;;;;;4995576;28;20089;-88
2022/03/07 10:01:44;;;;;;;5.00;2.45;;;8.80;55.10;;;;;;4995516;28;20030;-80
2022/03/07 10:04:11;;;;;;;6.40;3.08;;;8.90;55.40;;;;;;4994917;28;20034;-79
2022/03/07 10:06:38;;;;;;;6.78;2.90;;;9.00;55.30;;;;;;4994604;28;20034;-80
2022/03/07 10:09:04;;;;;;;3.20;2.28;;;9.00;54.60;;;;;;4994637;28;20033;-80
2022/03/07 10:11:32;;;;;;;5.53;3.03;;;9.10;54.20;;;;;;4994606;28;20554;-80
2022/03/07 10:14:05;;;;;;;4.63;2.38;;;9.20;54.10;;;;;;4994896;28;20041;-80
2022/03/07 10:16:38;;;;;;;4.65;3.00;;;9.20;53.40;;;;;;4994507;28;20462;-79
2022/03/07 10:19:11;;;;;;;3.83;2.60;;;9.20;53.70;;;;;;4995310;28;20089;-79
2022/03/07 10:21:44;;;;;;;5.30;3.03;;;9.20;53.50;;;;;;4994884;28;20474;-80
2022/03/07 10:24:10;;;;;;;5.20;2.83;;;9.10;55.60;;;;;;4994850;28;20113;-80
2022/03/07 10:26:35;;;;;;;4.15;2.55;;;9.20;53.80;;;;;;4994562;28;20453;-80
2022/03/07 10:29:05;;;;;;;5.20;3.30;;;9.10;53.70;;;;;;4994698;28;20031;-79
2022/03/07 10:31:30;;;;;;;6.97;3.00;;;9.30;54.30;;;;;;4994744;28;20085;-79
2022/03/07 10:34:00;;;;;;;4.00;2.13;;;9.50;55.00;;;;;;4994946;28;20026;-80
2022/03/07 10:36:35;;;;;;;4.38;2.80;;;9.60;52.70;;;;;;4994605;28;20022;-80
2022/03/07 10:39:01;;;;;;;4.30;2.80;;;9.70;52.70;;;;;;4993841;28;20562;-79
2022/03/07 10:41:33;;;;;;;4.35;2.45;;;9.60;52.50;;;;;;4994185;28;20026;-80
2022/03/07 10:43:59;;;;;;;8.20;3.00;;;9.60;52.60;;;;;;4994569;28;20030;-79
2022/03/07 10:46:26;;;;;;;3.45;2.38;;;9.50;52.40;;;;;;4994597;28;20038;-83
2022/03/07 10:48:52;;;;;;;4.18;2.67;;;9.60;53.30;;;;;;4994587;28;20018;-80
2022/03/07 10:51:20;;;;;;;6.43;2.90;;;9.80;53.70;;;;;;4994113;28;20027;-80
2022/03/07 10:53:46;;;;;;;5.15;2.83;;;9.70;52.50;;;;;;4994520;28;20026;-81
2022/03/07 10:56:14;;;;;;;5.05;2.75;;;9.80;53.50;;;;;;4994111;28;20497;-81
2022/03/07 10:58:52;;;;;;;4.80;3.25;;;9.70;53.40;;;;;;4994600;28;20034;-80
2022/03/07 11:01:29;;;;;;;7.22;3.35;;;9.80;53.90;;;;;;4994138;28;20355;-80
2022/03/07 11:03:56;;;;;;;3.80;3.15;;;9.90;53.40;;;;;;4994073;28;20080;-79
2022/03/07 11:06:24;;;;;;;5.53;3.53;;;9.90;53.80;;;;;;4994404;28;20041;-79
2022/03/07 11:08:50;;;;;;;6.57;3.15;;;10.00;53.90;;;;;;4993935;28;20030;-78
2022/03/07 11:11:16;;;;;;;6.75;3.67;;;10.10;54.60;;;;;;4993902;28;20034;-79
2022/03/07 11:13:43;;;;;;;5.70;3.80;;;10.20;54.80;;;;;;4993661;28;20110;-79
2022/03/07 11:16:11;;;;;;;6.68;3.35;;;10.40;54.20;;;;;;4993899;28;20382;-79
2022/03/07 11:18:39;;;;;;;6.13;4.05;;;10.50;53.70;;;;;;4993821;28;20354;-79
2022/03/07 11:21:05;;;;;;;5.03;4.05;;;10.50;54.60;;;;;;4993646;28;20038;-79
2022/03/07 11:23:31;;;;;;;7.10;3.83;;;10.40;54.40;;;;;;4993766;28;20057;-79
2022/03/07 11:25:59;;;;;;;7.80;4.43;;;10.40;55.00;;;;;;4993547;28;20577;-79
2022/03/07 11:28:27;;;;;;;6.03;4.05;;;10.40;54.30;;;;;;4993296;28;20485;-79
2022/03/07 11:30:54;;;;;;;6.15;3.90;;;10.30;55.10;;;;;;4993333;28;20023;-80
2022/03/07 11:33:33;;;;;;;8.43;4.63;;;10.10;55.20;;;;;;4993914;28;20030;-79
2022/03/07 11:36:02;;;;;;;4.78;3.60;;;10.00;55.60;;;;;;4993994;28;20030;-79
2022/03/07 11:38:31;;;;;;;5.30;4.00;;;9.90;55.40;;;;;;4993560;28;20030;-78
2022/03/07 11:41:09;;;;;;;5.78;4.00;;;10.10;55.40;;;;;;4993507;28;20389;-80
2022/03/07 11:43:48;;;;;;;5.65;4.05;;;10.20;55.60;;;;;;4993458;28;20081;-79
2022/03/07 11:46:29;;;;;;;7.28;3.97;;;10.10;54.70;;;;;;4993486;28;20121;-79
2022/03/07 11:48:55;;;;;;;7.35;3.88;;;10.20;55.30;;;;;;4993862;28;20026;-79
2022/03/07 11:51:26;;;;;;;6.47;4.43;;;10.40;55.20;;;;;;4995084;28;20061;-79
2022/03/07 11:53:53;;;;;;;8.05;4.32;;;10.50;55.70;;;;;;4997426;28;20030;-80
2022/03/07 11:56:33;;;;;;;7.22;4.60;;;10.60;54.80;;;;;;4997710;28;20359;-79
2022/03/07 11:59:02;;;;;;;7.22;3.80;;;10.60;55.30;;;;;;4997714;28;20032;-79
2022/03/07 12:01:30;;;;;;;6.28;4.63;;;10.60;56.10;;;;;;4997835;28;20037;-79
2022/03/07 12:04:10;;;;;;;8.20;4.75;;;10.60;56.10;;;;;;4997694;28;20037;-79
2022/03/07 12:06:51;;;;;;;6.60;4.63;;;10.50;56.60;;;;;;4997373;28;20037;-79
2022/03/07 12:09:32;;;;;;;6.57;4.72;;;10.40;56.90;;;;;;4997331;28;20164;-79
2022/03/07 12:12:06;;;;;;;7.13;4.35;;;10.30;57.10;;;;;;4997090;28;20041;-79
2022/03/07 12:14:35;;;;;;;9.30;5.28;;;10.20;57.50;;;;;;4997360;28;20059;-79
2022/03/07 12:17:09;;;;;;;9.10;5.43;;;10.10;58.50;;;;;;4996987;28;20031;-79
2022/03/07 12:19:36;;;;;;;7.18;5.40;;;10.20;58.70;;;;;;4997306;28;20102;-79
2022/03/07 12:22:10;;;;;;;7.65;5.35;;;10.40;58.40;;;;;;4997025;28;20026;-79
2022/03/07 12:24:37;;;;;;;11.25;6.45;;;10.40;58.40;;;;;;4997186;28;20117;-79
2022/03/07 12:27:03;;;;;;;11.98;6.35;;;10.60;59.40;;;;;;4996266;28;20030;-79
2022/03/07 12:29:29;;;;;;;9.02;6.28;;;10.50;58.10;;;;;;4996928;28;20065;-79
2022/03/07 12:32:00;;;;;;;9.90;6.32;;;10.20;58.70;;;;;;4997085;28;20026;-79
2022/03/07 12:34:27;;;;;;;7.88;5.47;;;10.00;60.80;;;;;;4996754;28;20025;-79
2022/03/07 12:37:01;;;;;;;8.40;5.65;;;10.20;60.10;;;;;;4996779;28;20045;-79
2022/03/07 12:39:29;;;;;;;8.73;5.32;;;10.40;58.80;;;;;;4996563;28;20050;-78
2022/03/07 12:42:00;;;;;;;8.65;4.25;;;10.60;58.60;;;;;;4996569;28;20433;-78
2022/03/07 12:44:25;;;;;;;7.60;4.85;;;10.70;58.30;;;;;;4996820;28;20057;-79
2022/03/07 12:46:51;;;;;;;6.95;4.30;;;10.70;58.20;;;;;;4996640;28;20533;-78
2022/03/07 12:49:17;;;;;;;6.70;4.47;;;10.80;57.80;;;;;;4996554;28;20118;-78